Aviation Digital Data Service (ADDS)

Output produced by METARs form (2030 UTC 27 February 2017)
found at http://aviationweather.gov/adds/metars/
 
KCON 271720Z 2718/2818 23012G18KT P6SM FEW050 SCT080 
     FM280000 VRB03KT P6SM FEW100 
     FM280800 00000KT P6SM BKN050 OVC080